Time;durP1;ratioP1;P1;durP2;ratioP2;P2;SDS_P1;SDS_P2;PMS_P1;PMS_P2;Temp;Humidity;BMP_temperature;BMP_pressure;BME280_temperature;BME280_humidity;BME280_pressure;Samples;Min_cycle;Max_cycle;Signal;HPM_P1;HPM_P2
2023/10/26 00:02:15;;;;;;;2.47;0.30;;;13.40;99.90;;;;;;5074898;28;20401;-83
2023/10/26 00:04:41;;;;;;;0.40;0.20;;;13.40;99.90;;;;;;5074493;28;20021;-83
2023/10/26 00:07:06;;;;;;;1.27;0.20;;;13.40;99.90;;;;;;5075759;28;20075;-83
2023/10/26 00:09:32;;;;;;;0.57;0.25;;;13.40;99.90;;;;;;5075302;28;20024;-83
2023/10/26 00:11:57;;;;;;;0.60;0.20;;;13.40;99.90;;;;;;5075799;28;20074;-83
2023/10/26 00:14:23;;;;;;;1.45;0.30;;;13.30;99.90;;;;;;5074354;28;20020;-83
2023/10/26 00:16:49;;;;;;;0.57;0.47;;;13.40;99.90;;;;;;5074156;28;20021;-83
2023/10/26 00:19:14;;;;;;;1.08;0.30;;;13.40;99.90;;;;;;5074694;28;20465;-83
2023/10/26 00:21:41;;;;;;;1.13;0.22;;;13.30;99.90;;;;;;5074419;28;20024;-83
2023/10/26 00:24:07;;;;;;;0.57;0.20;;;13.30;99.90;;;;;;5074788;28;20032;-83
2023/10/26 00:26:33;;;;;;;0.70;0.25;;;13.30;99.90;;;;;;5074030;28;20477;-83
2023/10/26 00:28:58;;;;;;;0.45;0.30;;;13.40;99.90;;;;;;5074454;28;20021;-83
2023/10/26 00:31:24;;;;;;;0.30;0.30;;;13.30;99.90;;;;;;5074940;28;20093;-83
2023/10/26 00:33:49;;;;;;;0.47;0.30;;;13.30;99.90;;;;;;5074268;28;20033;-83
2023/10/26 00:36:15;;;;;;;0.93;0.20;;;13.30;99.90;;;;;;5074086;28;20044;-83
2023/10/26 00:38:41;;;;;;;0.43;0.30;;;13.30;99.90;;;;;;5074696;28;20359;-83
2023/10/26 00:41:06;;;;;;;0.77;0.20;;;13.30;99.90;;;;;;5087534;28;20032;-83
2023/10/26 00:43:32;;;;;;;0.20;0.20;;;13.30;99.90;;;;;;5094240;28;20035;-83
2023/10/26 00:45:58;;;;;;;0.85;0.20;;;13.30;99.90;;;;;;5094450;28;20024;-83
2023/10/26 00:48:25;;;;;;;2.15;0.25;;;13.30;99.90;;;;;;5093938;28;20032;-82
2023/10/26 00:50:51;;;;;;;3.15;0.32;;;13.30;99.90;;;;;;5095460;28;20020;-83
2023/10/26 00:53:19;;;;;;;0.22;0.20;;;13.30;99.90;;;;;;5095250;28;20032;-83
2023/10/26 00:55:48;;;;;;;0.47;0.20;;;13.30;99.90;;;;;;5093928;28;20483;-83
2023/10/26 00:58:15;;;;;;;0.38;0.20;;;13.30;99.90;;;;;;5095206;28;20020;-83
2023/10/26 01:00:41;;;;;;;0.20;0.20;;;13.30;99.90;;;;;;5093464;28;20020;-84
2023/10/26 01:03:07;;;;;;;0.22;0.20;;;13.30;99.90;;;;;;5094007;28;20032;-83
2023/10/26 01:05:33;;;;;;;2.45;0.20;;;13.30;99.90;;;;;;5093683;28;20093;-83
2023/10/26 01:07:59;;;;;;;0.75;0.20;;;13.30;99.90;;;;;;5094245;28;20020;-83
2023/10/26 01:10:26;;;;;;;0.30;0.20;;;13.30;99.90;;;;;;5093068;28;20028;-82
2023/10/26 01:12:52;;;;;;;1.23;0.30;;;13.30;99.90;;;;;;5093694;28;20038;-83
2023/10/26 01:15:18;;;;;;;1.48;0.30;;;13.30;99.90;;;;;;5093738;28;20028;-83
2023/10/26 01:17:44;;;;;;;1.10;0.40;;;13.30;99.90;;;;;;5094557;28;20366;-84
2023/10/26 01:20:15;;;;;;;1.80;0.40;;;13.30;99.90;;;;;;5093807;28;20016;-84
2023/10/26 01:22:41;;;;;;;1.10;0.40;;;13.30;99.90;;;;;;5093277;28;20028;-84
2023/10/26 01:25:07;;;;;;;0.30;0.20;;;13.30;99.90;;;;;;5093741;28;20035;-84
2023/10/26 01:27:33;;;;;;;2.40;0.30;;;13.30;99.90;;;;;;5093314;28;20028;-84
2023/10/26 01:29:59;;;;;;;0.22;0.20;;;13.30;99.90;;;;;;5094896;28;20150;-83
2023/10/26 01:32:26;;;;;;;9.18;0.57;;;13.30;99.90;;;;;;5094122;28;20471;-82
2023/10/26 01:34:52;;;;;;;0.20;0.20;;;13.30;99.90;;;;;;5094787;28;20078;-84
2023/10/26 01:37:17;;;;;;;1.08;0.30;;;13.30;99.90;;;;;;5093569;28;20500;-84
2023/10/26 01:39:43;;;;;;;1.23;0.30;;;13.30;99.90;;;;;;5093094;28;20031;-84
2023/10/26 01:42:10;;;;;;;0.50;0.20;;;13.30;99.90;;;;;;5093397;28;20078;-84
2023/10/26 01:44:37;;;;;;;0.70;0.25;;;13.30;99.90;;;;;;5092476;28;20102;-84
2023/10/26 01:47:03;;;;;;;1.00;0.30;;;13.30;99.90;;;;;;5094461;28;20035;-84
2023/10/26 01:49:29;;;;;;;1.27;0.40;;;13.30;99.90;;;;;;5093076;28;20119;-84
2023/10/26 01:51:55;;;;;;;1.05;0.40;;;13.20;99.90;;;;;;5093256;28;20031;-84
2023/10/26 01:54:20;;;;;;;0.20;0.20;;;13.20;99.90;;;;;;5093401;28;20032;-84
2023/10/26 01:56:46;;;;;;;0.40;0.30;;;13.20;99.90;;;;;;5092779;28;20020;-84
2023/10/26 01:59:11;;;;;;;0.73;0.35;;;13.20;99.90;;;;;;5094183;28;20116;-85
2023/10/26 02:01:37;;;;;;;1.90;0.28;;;13.20;99.90;;;;;;5092661;28;20024;-84
2023/10/26 02:04:02;;;;;;;1.75;0.40;;;13.20;99.90;;;;;;5093333;28;20453;-84
2023/10/26 02:06:28;;;;;;;1.13;0.47;;;13.10;99.90;;;;;;5092350;28;20027;-83
2023/10/26 02:08:53;;;;;;;0.57;0.20;;;13.10;99.90;;;;;;5093890;28;20073;-85
2023/10/26 02:11:19;;;;;;;1.15;0.40;;;13.10;99.90;;;;;;5093614;28;20028;-85
2023/10/26 02:13:45;;;;;;;1.17;0.32;;;13.10;99.90;;;;;;5092456;28;20089;-84
2023/10/26 02:16:13;;;;;;;1.13;0.40;;;13.10;99.90;;;;;;5092939;28;20028;-85
2023/10/26 02:18:40;;;;;;;2.50;0.40;;;13.10;99.90;;;;;;5093726;28;20028;-84
2023/10/26 02:21:05;;;;;;;1.77;0.40;;;13.10;99.90;;;;;;5092879;28;20025;-85
2023/10/26 02:23:31;;;;;;;1.65;0.30;;;13.10;99.90;;;;;;5092647;28;20035;-85
2023/10/26 02:25:57;;;;;;;0.90;0.40;;;13.10;99.90;;;;;;5093103;28;20052;-85
2023/10/26 02:28:23;;;;;;;1.95;0.40;;;13.10;99.90;;;;;;5092955;28;20097;-85
2023/10/26 02:30:48;;;;;;;1.30;0.40;;;13.10;99.90;;;;;;5092577;28;20027;-85
2023/10/26 02:33:14;;;;;;;1.27;0.32;;;13.10;99.90;;;;;;5092551;28;20090;-84
2023/10/26 02:35:40;;;;;;;1.63;0.38;;;13.00;99.90;;;;;;5092264;28;20457;-83
2023/10/26 02:38:05;;;;;;;1.27;0.32;;;13.00;99.90;;;;;;5092461;28;20020;-83
2023/10/26 02:40:32;;;;;;;0.50;0.30;;;13.00;99.90;;;;;;5093388;28;20020;-82
2023/10/26 02:42:58;;;;;;;0.57;0.30;;;13.00;99.90;;;;;;5092685;28;20028;-83
2023/10/26 02:45:24;;;;;;;1.75;0.57;;;12.90;99.90;;;;;;5092772;28;20051;-83
2023/10/26 02:47:49;;;;;;;1.10;0.40;;;12.90;99.90;;;;;;5093289;28;20111;-84
2023/10/26 02:50:15;;;;;;;2.72;0.50;;;12.90;99.90;;;;;;5092809;28;20020;-83
2023/10/26 02:52:41;;;;;;;2.47;0.50;;;12.90;99.90;;;;;;5092166;28;20509;-83
2023/10/26 02:55:07;;;;;;;0.95;0.40;;;12.90;99.90;;;;;;5092915;28;20045;-83
2023/10/26 02:57:33;;;;;;;1.67;0.45;;;12.90;99.90;;;;;;5093305;28;20141;-83
2023/10/26 02:59:58;;;;;;;3.70;0.57;;;12.90;99.90;;;;;;5092734;28;20456;-83
2023/10/26 03:02:24;;;;;;;1.15;0.40;;;12.90;99.90;;;;;;5093620;28;20093;-83
2023/10/26 03:04:49;;;;;;;2.78;0.30;;;12.90;99.90;;;;;;5093234;28;20024;-83
2023/10/26 03:07:22;;;;;;;1.45;0.50;;;12.90;99.90;;;;;;5093680;28;20059;-82
2023/10/26 03:09:50;;;;;;;2.65;0.43;;;12.90;99.90;;;;;;5091973;28;20024;-82
2023/10/26 03:12:17;;;;;;;2.63;0.50;;;12.90;99.90;;;;;;5092438;28;20492;-82
2023/10/26 03:14:42;;;;;;;1.58;0.50;;;12.90;99.90;;;;;;5091997;28;20028;-82
2023/10/26 03:17:08;;;;;;;0.80;0.30;;;12.90;99.90;;;;;;5092548;28;20484;-82
2023/10/26 03:19:33;;;;;;;1.40;0.40;;;12.90;99.90;;;;;;5091977;28;20107;-81
2023/10/26 03:21:59;;;;;;;0.75;0.30;;;12.90;99.90;;;;;;5093335;28;20024;-82
2023/10/26 03:24:24;;;;;;;1.77;0.40;;;12.80;99.90;;;;;;5095973;28;20441;-82
2023/10/26 03:26:50;;;;;;;1.88;0.30;;;12.80;99.90;;;;;;5095589;28;20028;-82
2023/10/26 03:29:15;;;;;;;5.43;0.60;;;12.80;99.90;;;;;;5095938;28;20105;-83
2023/10/26 03:31:41;;;;;;;6.90;0.60;;;12.80;99.90;;;;;;5095309;28;20111;-82
2023/10/26 03:34:07;;;;;;;1.33;0.38;;;12.80;99.90;;;;;;5095773;28;20085;-83
2023/10/26 03:36:33;;;;;;;1.15;0.30;;;12.80;99.90;;;;;;5094986;28;20105;-81
2023/10/26 03:38:58;;;;;;;0.73;0.32;;;12.80;99.90;;;;;;5095871;28;20058;-82
2023/10/26 03:41:24;;;;;;;0.30;0.30;;;12.80;99.90;;;;;;5095836;28;20024;-84
2023/10/26 03:43:50;;;;;;;0.30;0.20;;;12.80;99.90;;;;;;5095165;28;20035;-83
2023/10/26 03:46:16;;;;;;;1.38;0.30;;;12.80;99.90;;;;;;5096843;28;20025;-81
2023/10/26 03:48:41;;;;;;;2.15;0.47;;;12.80;99.90;;;;;;5096172;28;20055;-82
2023/10/26 03:51:07;;;;;;;1.52;0.30;;;12.80;99.90;;;;;;5096657;28;20062;-83
2023/10/26 03:53:33;;;;;;;1.38;0.50;;;12.80;99.90;;;;;;5094974;28;20462;-81
2023/10/26 03:55:59;;;;;;;1.58;0.70;;;12.80;99.90;;;;;;5096445;28;20020;-82
2023/10/26 03:58:25;;;;;;;2.17;0.73;;;12.80;99.90;;;;;;5095230;28;20031;-83
2023/10/26 04:00:51;;;;;;;0.47;0.32;;;12.80;99.90;;;;;;5096034;28;20469;-82
2023/10/26 04:03:17;;;;;;;2.92;0.50;;;12.80;99.90;;;;;;5095281;28;20035;-82
2023/10/26 04:05:42;;;;;;;1.98;0.32;;;12.80;99.90;;;;;;5094609;28;20028;-82
2023/10/26 04:08:09;;;;;;;0.85;0.40;;;12.80;99.90;;;;;;5095120;28;20462;-82
2023/10/26 04:10:35;;;;;;;1.55;0.40;;;12.80;99.90;;;;;;5094592;28;20123;-82
2023/10/26 04:13:01;;;;;;;1.45;0.30;;;12.80;99.90;;;;;;5096340;28;20157;-82
2023/10/26 04:15:27;;;;;;;3.55;0.47;;;12.80;99.90;;;;;;5094751;28;20035;-83
2023/10/26 04:17:53;;;;;;;2.42;0.30;;;12.80;99.90;;;;;;5094366;28;20038;-83
2023/10/26 04:20:20;;;;;;;1.73;0.40;;;12.80;99.90;;;;;;5095309;28;20028;-82
2023/10/26 04:22:46;;;;;;;0.65;0.30;;;12.80;99.90;;;;;;5094624;28;20145;-82
2023/10/26 04:25:13;;;;;;;0.30;0.10;;;12.80;99.90;;;;;;5095938;28;20032;-83
2023/10/26 04:27:38;;;;;;;0.30;0.30;;;12.80;99.90;;;;;;5094610;28;20024;-82
2023/10/26 04:30:05;;;;;;;1.48;0.30;;;12.80;99.90;;;;;;5094893;28;20024;-82
2023/10/26 04:32:30;;;;;;;0.75;0.20;;;12.80;99.90;;;;;;5094543;28;20481;-82
2023/10/26 04:34:56;;;;;;;0.93;0.30;;;12.70;99.90;;;;;;5094612;28;20027;-82
2023/10/26 04:37:21;;;;;;;0.95;0.32;;;12.70;99.90;;;;;;5095566;28;20063;-83
2023/10/26 04:39:47;;;;;;;1.05;0.30;;;12.70;99.90;;;;;;5094133;28;20468;-82
2023/10/26 04:42:13;;;;;;;2.55;0.40;;;12.70;99.90;;;;;;5095550;28;20107;-82
2023/10/26 04:44:39;;;;;;;1.13;0.52;;;12.70;99.90;;;;;;5095225;28;20093;-82
2023/10/26 04:47:05;;;;;;;1.38;0.30;;;12.70;99.90;;;;;;5096242;28;20024;-83
2023/10/26 04:49:30;;;;;;;0.47;0.40;;;12.70;99.90;;;;;;5095383;28;20024;-83
2023/10/26 04:51:56;;;;;;;0.55;0.45;;;12.70;99.90;;;;;;5093874;28;20370;-82
2023/10/26 04:54:21;;;;;;;0.73;0.40;;;12.70;99.90;;;;;;5093759;28;20130;-83
2023/10/26 04:56:47;;;;;;;3.13;0.50;;;12.70;99.90;;;;;;5094705;28;20028;-82
2023/10/26 04:59:13;;;;;;;1.55;0.35;;;12.60;99.90;;;;;;5094302;28;20518;-82
2023/10/26 05:01:38;;;;;;;0.25;0.25;;;12.60;99.90;;;;;;5094719;28;20441;-82
2023/10/26 05:04:04;;;;;;;2.22;0.30;;;12.60;99.90;;;;;;5094381;28;20431;-84
2023/10/26 05:06:30;;;;;;;1.25;0.30;;;12.60;99.90;;;;;;5095224;28;20054;-84
2023/10/26 05:08:56;;;;;;;0.57;0.30;;;12.60;99.90;;;;;;5093912;28;20461;-84
2023/10/26 05:11:22;;;;;;;0.30;0.25;;;12.60;99.90;;;;;;5094064;28;20385;-83
2023/10/26 05:13:48;;;;;;;0.93;0.35;;;12.60;99.90;;;;;;5093468;28;20401;-82
2023/10/26 05:16:14;;;;;;;0.75;0.30;;;12.60;99.90;;;;;;5093679;28;20028;-82
2023/10/26 05:18:40;;;;;;;2.72;0.45;;;12.60;99.90;;;;;;5093020;28;20024;-81
2023/10/26 05:21:05;;;;;;;1.02;0.22;;;12.70;99.90;;;;;;5094171;28;20069;-84
2023/10/26 05:23:31;;;;;;;1.02;0.40;;;12.60;99.90;;;;;;5093840;28;20077;-84
2023/10/26 05:25:56;;;;;;;1.45;0.50;;;12.60;99.90;;;;;;5093107;28;20134;-82
2023/10/26 05:28:22;;;;;;;2.58;0.60;;;12.60;99.90;;;;;;5093935;28;20028;-82
2023/10/26 05:30:47;;;;;;;2.95;0.52;;;12.60;99.90;;;;;;5093196;28;20031;-81
2023/10/26 05:33:15;;;;;;;1.77;0.50;;;12.50;99.90;;;;;;5094195;28;20103;-82
2023/10/26 05:35:40;;;;;;;0.30;0.30;;;12.50;99.90;;;;;;5092907;28;20024;-83
2023/10/26 05:38:06;;;;;;;0.73;0.40;;;12.50;99.90;;;;;;5093533;28;20163;-83
2023/10/26 05:40:32;;;;;;;0.65;0.40;;;12.50;99.90;;;;;;5094545;28;20080;-84
2023/10/26 05:42:58;;;;;;;1.67;0.45;;;12.50;99.90;;;;;;5093985;28;20451;-84
2023/10/26 05:45:23;;;;;;;0.38;0.30;;;12.50;99.90;;;;;;5093247;28;20079;-84
2023/10/26 05:47:52;;;;;;;1.67;0.50;;;12.50;99.90;;;;;;5093900;28;20085;-83
2023/10/26 05:50:19;;;;;;;0.80;0.40;;;12.50;99.90;;;;;;5093506;28;20028;-83
2023/10/26 05:52:45;;;;;;;1.65;0.30;;;12.50;99.90;;;;;;5093934;28;20040;-83
2023/10/26 05:55:10;;;;;;;0.95;0.43;;;12.50;99.90;;;;;;5094286;28;20446;-84
2023/10/26 05:57:36;;;;;;;0.75;0.30;;;12.40;99.90;;;;;;5094264;28;20034;-82
2023/10/26 06:00:09;;;;;;;1.45;0.30;;;12.50;99.90;;;;;;5092735;28;20035;-82
2023/10/26 06:02:35;;;;;;;2.05;0.40;;;12.50;99.90;;;;;;5094252;28;20024;-83
2023/10/26 06:05:01;;;;;;;1.65;0.60;;;12.50;99.90;;;;;;5092658;28;20465;-82
2023/10/26 06:07:26;;;;;;;2.40;0.50;;;12.50;99.90;;;;;;5093975;28;20063;-83
2023/10/26 06:09:52;;;;;;;3.08;0.50;;;12.50;99.90;;;;;;5093501;28;20028;-83
2023/10/26 06:12:17;;;;;;;1.33;0.55;;;12.50;99.90;;;;;;5092916;28;20035;-83
2023/10/26 06:14:43;;;;;;;1.35;0.60;;;12.50;99.90;;;;;;5092355;28;20065;-83
2023/10/26 06:17:10;;;;;;;1.35;0.50;;;12.50;99.90;;;;;;5093201;28;20032;-83
2023/10/26 06:19:36;;;;;;;1.10;0.30;;;12.50;99.90;;;;;;5093102;28;20031;-83
2023/10/26 06:22:02;;;;;;;3.25;0.60;;;12.50;99.90;;;;;;5092386;28;20035;-83
2023/10/26 06:24:28;;;;;;;1.73;0.50;;;12.50;99.90;;;;;;5092893;28;20032;-83
2023/10/26 06:26:53;;;;;;;3.70;0.63;;;12.50;99.90;;;;;;5093218;28;20035;-83
2023/10/26 06:29:19;;;;;;;1.23;0.50;;;12.50;99.90;;;;;;5092828;28;20503;-83
2023/10/26 06:31:45;;;;;;;1.95;0.50;;;12.50;99.90;;;;;;5092376;28;20110;-82
2023/10/26 06:34:11;;;;;;;2.17;0.50;;;12.50;99.90;;;;;;5093636;28;20367;-83
2023/10/26 06:36:36;;;;;;;2.08;0.55;;;12.50;99.90;;;;;;5092360;28;20481;-82
2023/10/26 06:39:02;;;;;;;2.67;0.40;;;12.50;99.90;;;;;;5092121;28;20086;-82
2023/10/26 06:41:28;;;;;;;5.70;0.60;;;12.60;99.90;;;;;;5092688;28;20380;-83
2023/10/26 06:43:55;;;;;;;1.73;0.52;;;12.60;99.90;;;;;;5092466;28;20032;-83
2023/10/26 06:46:21;;;;;;;3.42;0.30;;;12.60;99.90;;;;;;5092407;28;20028;-83
2023/10/26 06:48:47;;;;;;;1.33;0.50;;;12.60;99.90;;;;;;5092074;28;20032;-82
2023/10/26 06:51:13;;;;;;;3.08;0.60;;;12.60;99.90;;;;;;5092578;28;20114;-83
2023/10/26 06:53:38;;;;;;;1.23;0.60;;;12.60;99.90;;;;;;5092358;28;20035;-82
2023/10/26 06:56:13;;;;;;;3.92;0.60;;;12.70;99.90;;;;;;5092148;28;20471;-82
2023/10/26 06:58:39;;;;;;;2.38;0.60;;;12.70;99.90;;;;;;5096142;28;20447;-82
2023/10/26 07:01:09;;;;;;;2.92;0.63;;;12.70;99.90;;;;;;5096815;28;20024;-82
2023/10/26 07:03:35;;;;;;;2.38;0.60;;;12.70;99.90;;;;;;5088355;28;20040;-83
2023/10/26 07:06:04;;;;;;;1.67;0.60;;;12.70;99.90;;;;;;5085575;28;20107;-82
2023/10/26 07:08:31;;;;;;;0.63;0.57;;;12.70;99.90;;;;;;5085645;28;20021;-82
2023/10/26 07:10:59;;;;;;;1.23;0.60;;;12.70;99.90;;;;;;5079730;28;20027;-81
2023/10/26 07:13:25;;;;;;;2.00;0.80;;;12.70;99.90;;;;;;5076751;28;20079;-82
2023/10/26 07:15:50;;;;;;;1.02;0.55;;;12.80;99.90;;;;;;5075251;28;20466;-83
2023/10/26 07:18:18;;;;;;;1.35;0.68;;;12.70;99.90;;;;;;5092718;28;20031;-82
2023/10/26 07:20:44;;;;;;;1.65;0.70;;;12.80;99.90;;;;;;5089544;28;20046;-83
2023/10/26 07:23:10;;;;;;;4.97;0.70;;;12.70;99.90;;;;;;5098356;28;20020;-83
2023/10/26 07:25:35;;;;;;;0.98;0.50;;;12.80;99.90;;;;;;5091882;28;20076;-83
2023/10/26 07:28:02;;;;;;;1.00;0.60;;;12.80;99.90;;;;;;5087991;28;20020;-82
2023/10/26 07:30:27;;;;;;;2.05;0.70;;;12.80;99.90;;;;;;5098419;28;20031;-86
2023/10/26 07:32:53;;;;;;;1.52;0.50;;;12.80;99.90;;;;;;5110592;28;20074;-84
2023/10/26 07:35:18;;;;;;;1.40;0.63;;;12.80;99.90;;;;;;5096978;28;20030;-83
2023/10/26 07:37:45;;;;;;;2.60;1.00;;;12.80;99.90;;;;;;5100141;28;20036;-84
2023/10/26 07:40:11;;;;;;;2.17;0.77;;;12.80;99.90;;;;;;5103644;28;20031;-81
2023/10/26 07:42:36;;;;;;;1.85;0.55;;;12.80;99.90;;;;;;5098440;28;20036;-81
2023/10/26 07:45:02;;;;;;;0.50;0.47;;;12.80;99.90;;;;;;5108488;28;20058;-80
2023/10/26 07:47:28;;;;;;;1.10;0.40;;;12.80;99.90;;;;;;5094495;28;20028;-81
2023/10/26 07:49:53;;;;;;;2.33;0.40;;;12.90;99.90;;;;;;5108636;28;20032;-82
2023/10/26 07:52:19;;;;;;;3.05;0.60;;;12.90;99.90;;;;;;5098209;28;20051;-81
2023/10/26 07:54:45;;;;;;;1.35;0.40;;;12.90;99.90;;;;;;5102081;28;20388;-82
2023/10/26 07:57:10;;;;;;;2.00;0.50;;;13.00;99.90;;;;;;5115208;28;20028;-81
2023/10/26 07:59:36;;;;;;;2.65;0.90;;;13.00;99.90;;;;;;5107103;28;20092;-80
2023/10/26 08:02:02;;;;;;;2.92;0.70;;;13.00;99.90;;;;;;5099936;28;20024;-81
2023/10/26 08:04:32;;;;;;;4.20;0.80;;;13.10;99.90;;;;;;5111479;28;20032;-81
2023/10/26 08:06:58;;;;;;;1.00;0.50;;;13.10;99.90;;;;;;5095100;28;20030;-80
2023/10/26 08:09:25;;;;;;;2.58;0.57;;;13.20;99.90;;;;;;5098802;28;20028;-78
2023/10/26 08:11:51;;;;;;;2.47;0.60;;;13.20;99.90;;;;;;5107627;28;20565;-81
2023/10/26 08:14:17;;;;;;;1.55;0.65;;;13.20;99.90;;;;;;5097806;28;20028;-82
2023/10/26 08:16:42;;;;;;;0.70;0.60;;;13.20;99.90;;;;;;5095214;28;20380;-81
2023/10/26 08:19:08;;;;;;;2.25;0.50;;;13.20;99.90;;;;;;5086031;28;20029;-84
2023/10/26 08:21:33;;;;;;;1.25;0.60;;;13.20;99.90;;;;;;5093730;28;20028;-82
2023/10/26 08:23:59;;;;;;;3.67;0.70;;;13.20;99.90;;;;;;5109291;28;20024;-83
2023/10/26 08:26:24;;;;;;;4.05;0.73;;;13.30;99.90;;;;;;5097414;28;20028;-81
2023/10/26 08:28:50;;;;;;;1.08;0.80;;;13.30;99.90;;;;;;5110666;28;20057;-82
2023/10/26 08:31:16;;;;;;;1.10;0.70;;;13.30;99.90;;;;;;5103257;28;20457;-85
2023/10/26 08:33:41;;;;;;;2.25;0.60;;;13.30;99.90;;;;;;5102887;28;20040;-86
2023/10/26 08:36:07;;;;;;;3.25;0.95;;;13.30;99.90;;;;;;5094363;28;20098;-82
2023/10/26 08:38:33;;;;;;;1.67;0.85;;;13.30;99.90;;;;;;5110732;28;20031;-81
2023/10/26 08:40:58;;;;;;;3.20;0.68;;;13.30;99.90;;;;;;5082154;28;20479;-82
2023/10/26 08:43:24;;;;;;;1.17;0.85;;;13.30;99.90;;;;;;5102965;28;20392;-81
2023/10/26 08:45:52;;;;;;;2.20;0.80;;;13.30;99.90;;;;;;5100942;28;20028;-81
2023/10/26 08:48:19;;;;;;;3.55;1.45;;;13.30;99.90;;;;;;5102257;28;20032;-84
2023/10/26 08:50:46;;;;;;;4.20;1.88;;;13.30;99.90;;;;;;5094293;28;20024;-85
2023/10/26 08:53:13;;;;;;;2.78;1.77;;;13.30;99.90;;;;;;5093890;28;20028;-83
2023/10/26 08:55:40;;;;;;;2.72;0.90;;;13.20;99.90;;;;;;5093824;28;20487;-84
2023/10/26 08:58:06;;;;;;;3.45;1.17;;;13.20;99.90;;;;;;5093316;28;20047;-84
2023/10/26 09:00:32;;;;;;;3.92;0.90;;;13.30;99.90;;;;;;5094158;28;20469;-85
2023/10/26 09:02:58;;;;;;;5.25;0.80;;;13.30;99.90;;;;;;5094871;28;20054;-85
2023/10/26 09:05:24;;;;;;;1.92;0.70;;;13.20;99.90;;;;;;5093992;28;20036;-85
2023/10/26 09:07:53;;;;;;;3.53;0.70;;;13.30;99.90;;;;;;5093882;28;20038;-85
2023/10/26 09:10:30;;;;;;;1.83;0.98;;;13.30;99.90;;;;;;5095125;28;20487;-85
2023/10/26 09:13:01;;;;;;;1.77;0.70;;;13.30;99.90;;;;;;5093488;28;20065;-85
2023/10/26 09:15:27;;;;;;;3.38;0.73;;;13.20;99.90;;;;;;5094239;28;20028;-85
2023/10/26 09:18:00;;;;;;;4.32;0.80;;;13.20;99.90;;;;;;5094481;28;20035;-86
2023/10/26 09:20:26;;;;;;;1.55;0.90;;;13.10;99.90;;;;;;5093893;28;20021;-85
2023/10/26 09:22:52;;;;;;;1.58;0.77;;;13.10;99.90;;;;;;5093248;28;20032;-83
2023/10/26 09:25:18;;;;;;;4.15;1.10;;;13.20;99.90;;;;;;5094911;28;20053;-83
2023/10/26 09:27:48;;;;;;;2.95;0.90;;;13.20;99.90;;;;;;5093614;28;20111;-84
2023/10/26 09:30:28;;;;;;;3.92;1.10;;;13.10;99.90;;;;;;5094984;28;20124;-83
2023/10/26 09:32:55;;;;;;;4.88;1.20;;;13.20;99.90;;;;;;5094347;28;20465;-86
2023/10/26 09:35:32;;;;;;;3.80;1.00;;;13.20;99.90;;;;;;5094618;28;20028;-85
2023/10/26 09:37:58;;;;;;;3.15;1.10;;;13.20;99.90;;;;;;5093102;28;20530;-85
2023/10/26 09:40:26;;;;;;;2.25;1.02;;;13.20;99.90;;;;;;5094559;28;20372;-85
2023/10/26 09:42:52;;;;;;;3.75;1.38;;;13.20;99.90;;;;;;5093042;28;20054;-86
2023/10/26 09:45:19;;;;;;;3.75;1.27;;;13.20;99.90;;;;;;5094282;28;20069;-86
2023/10/26 09:47:47;;;;;;;3.25;1.23;;;13.20;99.90;;;;;;5094502;28;20028;-86
2023/10/26 09:50:14;;;;;;;1.60;0.80;;;13.30;99.90;;;;;;5092955;28;20028;-86
2023/10/26 09:52:43;;;;;;;2.35;1.33;;;13.30;99.90;;;;;;5094378;28;20024;-86
2023/10/26 09:55:10;;;;;;;1.67;0.90;;;13.40;99.90;;;;;;5092985;28;20035;-85
2023/10/26 09:57:50;;;;;;;3.17;1.13;;;13.40;99.90;;;;;;5093252;28;20169;-85
2023/10/26 10:00:17;;;;;;;1.80;0.93;;;13.50;99.90;;;;;;5093401;28;20087;-86
2023/10/26 10:02:43;;;;;;;2.78;1.08;;;13.50;99.90;;;;;;5093205;28;20031;-86
2023/10/26 10:05:36;;;;;;;3.60;1.10;;;13.50;99.90;;;;;;5092624;28;20118;-85
2023/10/26 10:08:02;;;;;;;3.13;1.20;;;13.50;99.90;;;;;;5092588;28;20025;-85
2023/10/26 10:10:27;;;;;;;3.80;1.23;;;13.50;99.90;;;;;;5094158;28;20020;-83
2023/10/26 10:12:53;;;;;;;0.98;0.82;;;13.50;99.90;;;;;;5092675;28;20395;-83
2023/10/26 10:15:33;;;;;;;1.70;1.00;;;13.50;99.90;;;;;;5093849;28;20021;-84
2023/10/26 10:17:59;;;;;;;1.15;0.82;;;13.50;99.90;;;;;;5093779;28;20052;-83
2023/10/26 10:20:29;;;;;;;1.88;0.98;;;13.50;99.90;;;;;;5093092;28;20032;-84
2023/10/26 10:22:58;;;;;;;2.47;1.20;;;13.50;99.90;;;;;;5092430;28;20028;-84
2023/10/26 10:25:49;;;;;;;2.60;1.00;;;13.50;99.90;;;;;;5093927;28;20027;-84
2023/10/26 10:28:16;;;;;;;2.07;1.10;;;13.50;99.90;;;;;;5092502;28;20037;-84
2023/10/26 10:30:56;;;;;;;3.08;1.20;;;13.50;99.90;;;;;;5093018;28;20606;-84
2023/10/26 10:33:27;;;;;;;2.08;1.30;;;13.50;99.90;;;;;;5096331;28;20127;-84
2023/10/26 10:36:00;;;;;;;2.10;1.02;;;13.50;99.90;;;;;;5097519;28;20093;-81
2023/10/26 10:38:26;;;;;;;2.67;0.93;;;13.50;99.90;;;;;;5097433;28;20020;-83
2023/10/26 10:40:55;;;;;;;4.22;1.70;;;13.40;99.90;;;;;;5096847;28;20024;-84
2023/10/26 10:43:43;;;;;;;2.75;1.30;;;13.50;99.90;;;;;;5097060;28;20028;-83
2023/10/26 10:46:28;;;;;;;1.63;0.90;;;13.50;99.90;;;;;;5097429;28;20542;-83
2023/10/26 10:49:04;;;;;;;2.40;1.23;;;13.50;99.90;;;;;;5096247;28;20028;-81
2023/10/26 10:51:41;;;;;;;2.42;0.93;;;13.40;99.90;;;;;;5096539;28;20070;-82
2023/10/26 10:54:12;;;;;;;1.27;0.80;;;13.40;99.90;;;;;;5096190;28;20039;-83
2023/10/26 10:56:43;;;;;;;0.85;0.73;;;13.40;99.90;;;;;;5096738;28;20115;-83
2023/10/26 10:59:19;;;;;;;1.00;0.90;;;13.50;99.90;;;;;;5096607;28;20028;-83
2023/10/26 11:01:45;;;;;;;2.00;1.20;;;13.60;99.90;;;;;;5097783;28;20484;-84
2023/10/26 11:04:13;;;;;;;1.17;0.60;;;13.70;99.90;;;;;;5095815;28;20032;-84
2023/10/26 11:06:49;;;;;;;0.93;0.50;;;13.70;99.90;;;;;;5096416;28;20362;-84
2023/10/26 11:09:31;;;;;;;1.52;0.70;;;13.70;99.90;;;;;;5097132;28;20034;-85
2023/10/26 11:12:10;;;;;;;2.15;0.75;;;13.70;99.90;;;;;;5096060;28;20035;-82
2023/10/26 11:14:37;;;;;;;1.05;0.70;;;13.80;99.90;;;;;;5096324;28;20112;-84
2023/10/26 11:17:02;;;;;;;0.75;0.70;;;14.00;99.90;;;;;;5095639;28;20031;-83
2023/10/26 11:19:28;;;;;;;1.38;0.68;;;14.10;99.90;;;;;;5096281;28;20500;-84
2023/10/26 11:21:58;;;;;;;1.60;0.98;;;14.20;99.90;;;;;;5097327;28;20093;-84
2023/10/26 11:24:31;;;;;;;0.95;0.43;;;14.30;99.90;;;;;;5096150;28;20036;-83
2023/10/26 11:27:07;;;;;;;2.08;0.73;;;14.30;99.90;;;;;;5096473;28;20484;-82
2023/10/26 11:29:33;;;;;;;0.68;0.60;;;14.30;99.90;;;;;;5095525;28;20028;-84
2023/10/26 11:31:58;;;;;;;1.38;0.82;;;14.30;99.90;;;;;;5095701;28;20027;-83
2023/10/26 11:34:27;;;;;;;3.45;0.70;;;14.30;99.90;;;;;;5095988;28;20036;-83
2023/10/26 11:36:53;;;;;;;1.02;0.85;;;14.40;99.90;;;;;;5095708;28;20051;-84
2023/10/26 11:39:19;;;;;;;2.72;0.65;;;14.40;99.90;;;;;;5095051;28;20028;-83
2023/10/26 11:41:55;;;;;;;1.20;0.70;;;14.40;99.90;;;;;;5095882;28;20158;-84
2023/10/26 11:44:29;;;;;;;2.65;0.77;;;14.50;99.90;;;;;;5095480;28;20031;-86
2023/10/26 11:46:59;;;;;;;2.38;0.85;;;14.40;99.90;;;;;;5096090;28;20028;-83
2023/10/26 11:49:41;;;;;;;1.40;0.73;;;14.40;99.90;;;;;;5110491;28;20058;-83
2023/10/26 11:52:07;;;;;;;4.72;0.82;;;14.40;99.90;;;;;;5094644;28;20485;-82
2023/10/26 11:54:33;;;;;;;2.05;0.90;;;14.40;99.90;;;;;;5101266;28;20055;-80
2023/10/26 11:56:59;;;;;;;1.15;0.80;;;14.50;99.90;;;;;;5105569;28;20024;-82
2023/10/26 11:59:24;;;;;;;2.67;0.70;;;14.50;99.90;;;;;;5109231;28;20024;-82
2023/10/26 12:01:50;;;;;;;0.95;0.85;;;14.60;99.90;;;;;;5097997;28;20043;-81
2023/10/26 12:04:15;;;;;;;1.05;0.80;;;14.60;99.90;;;;;;5101321;28;20028;-82
2023/10/26 12:06:41;;;;;;;1.73;0.80;;;14.60;99.90;;;;;;5102283;28;20031;-81
2023/10/26 12:09:07;;;;;;;1.75;0.90;;;14.60;99.90;;;;;;5103143;28;20028;-81
2023/10/26 12:11:33;;;;;;;1.63;0.90;;;14.60;99.90;;;;;;5109613;28;20039;-85
2023/10/26 12:13:58;;;;;;;1.58;0.82;;;14.70;99.90;;;;;;5097406;28;20125;-82
2023/10/26 12:16:24;;;;;;;1.30;0.70;;;14.80;99.90;;;;;;5102938;28;20479;-82
2023/10/26 12:18:51;;;;;;;2.42;0.73;;;14.90;99.90;;;;;;5105712;28;20028;-80
2023/10/26 12:21:17;;;;;;;2.92;0.80;;;15.10;99.90;;;;;;5106362;28;20271;-83
2023/10/26 12:23:42;;;;;;;1.38;1.05;;;15.10;99.90;;;;;;5098523;28;20032;-82
2023/10/26 12:26:08;;;;;;;3.20;0.68;;;15.30;99.90;;;;;;5110592;28;20023;-81
2023/10/26 12:28:34;;;;;;;1.00;0.60;;;15.50;99.90;;;;;;5100899;28;20097;-81
2023/10/26 12:30:59;;;;;;;0.80;0.65;;;15.60;99.90;;;;;;5103776;28;20035;-80
2023/10/26 12:33:27;;;;;;;2.30;0.60;;;15.70;99.90;;;;;;5107861;28;20465;-82
2023/10/26 12:35:53;;;;;;;1.30;0.88;;;15.70;99.90;;;;;;5097319;28;20051;-81
2023/10/26 12:38:22;;;;;;;1.38;0.70;;;15.80;99.90;;;;;;5110500;28;20020;-82
2023/10/26 12:40:48;;;;;;;1.02;0.80;;;15.80;99.90;;;;;;5094767;28;20016;-81
2023/10/26 12:43:14;;;;;;;1.95;0.80;;;15.80;99.90;;;;;;5105544;28;20034;-82
2023/10/26 12:45:39;;;;;;;1.85;0.70;;;15.80;99.90;;;;;;5098236;28;20024;-82
2023/10/26 12:48:05;;;;;;;1.95;0.80;;;15.90;99.90;;;;;;5112819;28;20061;-83